Time;durP1;ratioP1;P1;durP2;ratioP2;P2;SDS_P1;SDS_P2;PMS_P1;PMS_P2;Temp;Humidity;BMP_temperature;BMP_pressure;BME280_temperature;BME280_humidity;BME280_pressure;Samples;Min_cycle;Max_cycle;Signal;HPM_P1;HPM_P2
2021/12/22 00:00:51;;;;;;;44.05;23.00;;;;;;;;;;5077338;27;93068;-73
2021/12/22 00:03:18;;;;;;;44.00;23.08;;;;;;;;;;5078408;27;91529;-73
2021/12/22 00:05:47;;;;;;;41.67;23.20;;;;;;;;;;5078107;27;92838;-73
2021/12/22 00:08:14;;;;;;;49.97;23.80;;;;;;;;;;5077739;27;93545;-73
2021/12/22 00:10:41;;;;;;;49.65;24.08;;;;;;;;;;5076340;27;94785;-73
2021/12/22 00:13:07;;;;;;;49.67;22.83;;;;;;;;;;5077159;27;95877;-72
2021/12/22 00:15:33;;;;;;;43.05;22.95;;;;;;;;;;5077822;27;93518;-73
2021/12/22 00:18:00;;;;;;;43.60;22.58;;;;;;;;;;5077484;27;92319;-72
2021/12/22 00:20:26;;;;;;;40.38;21.98;;;;;;;;;;5080949;27;93174;-73
2021/12/22 00:22:57;;;;;;;41.55;23.08;;;;;;;;;;5077750;27;92341;-73
2021/12/22 00:25:25;;;;;;;40.00;22.60;;;;;;;;;;5059795;27;93485;-73
2021/12/22 00:27:53;;;;;;;48.00;23.23;;;;;;;;;;5078117;27;92159;-73
2021/12/22 00:30:20;;;;;;;48.55;23.55;;;;;;;;;;5077244;27;94138;-73
2021/12/22 00:32:51;;;;;;;41.67;22.38;;;;;;;;;;5078172;27;93531;-73
2021/12/22 00:35:23;;;;;;;45.95;23.17;;;;;;;;;;5076968;27;96197;-73
2021/12/22 00:37:50;;;;;;;49.65;23.95;;;;;;;;;;5078465;27;92557;-73
2021/12/22 00:40:18;;;;;;;47.53;23.60;;;;;;;;;;5078673;27;93776;-73
2021/12/22 00:42:44;;;;;;;48.70;24.88;;;;;;;;;;5082478;27;92863;-73
2021/12/22 00:45:11;;;;;;;48.75;24.73;;;;;;;;;;5078559;27;93470;-72
2021/12/22 00:47:38;;;;;;;42.65;23.83;;;;;;;;;;5078346;27;93592;-72
2021/12/22 00:50:05;;;;;;;40.92;23.00;;;;;;;;;;5081250;27;92345;-73
2021/12/22 00:52:31;;;;;;;47.33;24.27;;;;;;;;;;5081085;27;92487;-73
2021/12/22 00:54:57;;;;;;;48.13;23.65;;;;;;;;;;5080088;27;93624;-73
2021/12/22 00:57:24;;;;;;;43.05;22.45;;;;;;;;;;5078177;27;93582;-73
2021/12/22 00:59:50;;;;;;;40.88;21.98;;;;;;;;;;5075371;27;94651;-73
2021/12/22 01:02:19;;;;;;;40.45;23.15;;;;;;;;;;5080048;27;93658;-73
2021/12/22 01:04:46;;;;;;;40.08;22.27;;;;;;;;;;5077351;27;93018;-73
2021/12/22 01:07:13;;;;;;;39.63;23.63;;;;;;;;;;5077035;27;93666;-73
2021/12/22 01:09:39;;;;;;;44.05;22.67;;;;;;;;;;5077104;27;92314;-73
2021/12/22 01:12:06;;;;;;;39.83;23.70;;;;;;;;;;5077707;27;93858;-73
2021/12/22 01:14:33;;;;;;;41.03;22.42;;;;;;;;;;5080531;27;93035;-73
2021/12/22 01:17:02;;;;;;;38.75;22.35;;;;;;;;;;5081257;27;91638;-73
2021/12/22 01:19:40;;;;;;;40.58;23.20;;;;;;;;;;5080724;27;92830;-73
2021/12/22 01:22:21;;;;;;;43.78;21.73;;;;;;;;;;5080358;27;93851;-73
2021/12/22 01:24:58;;;;;;;38.78;23.13;;;;;;;;;;5063626;27;94806;-73
2021/12/22 01:27:27;;;;;;;36.35;21.63;;;;;;;;;;5080629;27;93818;-73
2021/12/22 01:29:54;;;;;;;39.88;22.17;;;;;;;;;;5080557;27;92567;-73
2021/12/22 01:32:20;;;;;;;38.08;21.65;;;;;;;;;;5079037;27;95324;-73
2021/12/22 01:34:47;;;;;;;38.50;22.45;;;;;;;;;;5080345;27;93690;-73
2021/12/22 01:37:13;;;;;;;36.38;23.00;;;;;;;;;;5079734;27;92349;-73
2021/12/22 01:39:39;;;;;;;37.25;21.95;;;;;;;;;;5080432;27;93480;-73
2021/12/22 01:42:06;;;;;;;40.85;22.35;;;;;;;;;;5080855;27;91934;-73
2021/12/22 01:44:48;;;;;;;43.75;22.30;;;;;;;;;;5080335;27;92272;-73
2021/12/22 01:50:00;;;;;;;36.72;20.92;;;;;;;;;;5078596;27;94759;-73
2021/12/22 01:52:27;;;;;;;40.75;21.58;;;;;;;;;;5062351;27;95902;-73
2021/12/22 01:54:58;;;;;;;34.03;21.30;;;;;;;;;;5079820;27;94275;-73
2021/12/22 01:57:24;;;;;;;36.15;20.65;;;;;;;;;;5080286;27;92351;-73
2021/12/22 01:59:51;;;;;;;40.60;21.02;;;;;;;;;;5080142;27;93418;-73
2021/12/22 02:02:18;;;;;;;38.70;20.73;;;;;;;;;;5079436;27;93384;-73
2021/12/22 02:04:45;;;;;;;42.85;20.80;;;;;;;;;;5086206;27;92246;-72
2021/12/22 02:07:11;;;;;;;37.05;20.38;;;;;;;;;;5085540;27;93103;-72
2021/12/22 02:12:14;;;;;;;40.47;20.88;;;;;;;;;;5079366;27;93622;-73
2021/12/22 02:14:41;;;;;;;40.63;22.10;;;;;;;;;;5059454;27;95981;-73
2021/12/22 02:17:10;;;;;;;38.75;21.30;;;;;;;;;;5079908;27;92191;-72
2021/12/22 02:19:37;;;;;;;38.65;20.65;;;;;;;;;;5079980;27;92975;-73
2021/12/22 02:22:09;;;;;;;43.53;20.27;;;;;;;;;;5079498;27;93193;-73
2021/12/22 02:24:35;;;;;;;;;;;;;;;;;;5079363;27;92345;-73
2021/12/22 02:27:07;;;;;;;37.25;20.95;;;;;;;;;;5079394;27;121468;-73
2021/12/22 02:29:36;;;;;;;36.40;20.17;;;;;;;;;;5061112;27;96766;-72
2021/12/22 02:32:11;;;;;;;39.20;20.67;;;;;;;;;;5083095;27;91618;-73
2021/12/22 02:34:44;;;;;;;39.25;20.17;;;;;;;;;;5079414;27;93698;-72
2021/12/22 02:37:14;;;;;;;36.92;20.63;;;;;;;;;;5079362;27;92285;-73
2021/12/22 02:39:48;;;;;;;35.13;20.73;;;;;;;;;;5077823;27;94532;-73
2021/12/22 02:42:18;;;;;;;40.55;20.13;;;;;;;;;;5079477;27;92995;-73
2021/12/22 02:44:44;;;;;;;31.85;19.55;;;;;;;;;;5079483;27;92149;-73
2021/12/22 02:47:15;;;;;;;39.95;20.85;;;;;;;;;;5079371;27;93335;-73
2021/12/22 02:49:41;;;;;;;38.65;20.60;;;;;;;;;;5079016;27;93317;-73
2021/12/22 02:52:07;;;;;;;38.20;20.50;;;;;;;;;;5061017;27;92413;-73
2021/12/22 02:54:41;;;;;;;37.83;21.27;;;;;;;;;;5063949;27;92753;-72
2021/12/22 02:57:20;;;;;;;40.35;21.05;;;;;;;;;;5086145;27;91619;-73
2021/12/22 03:00:10;;;;;;;37.40;19.73;;;;;;;;;;5079065;27;92470;-72
2021/12/22 03:02:45;;;;;;;33.90;19.27;;;;;;;;;;5078428;27;93710;-72
2021/12/22 03:05:12;;;;;;;33.40;18.90;;;;;;;;;;5058709;27;94851;-72
2021/12/22 03:07:38;;;;;;;40.05;20.58;;;;;;;;;;5078745;27;95884;-72
2021/12/22 03:10:06;;;;;;;37.47;21.02;;;;;;;;;;5078894;27;93655;-72
2021/12/22 03:12:35;;;;;;;38.67;20.67;;;;;;;;;;5078554;27;92400;-72
2021/12/22 03:15:03;;;;;;;40.17;20.80;;;;;;;;;;5081759;27;93629;-73
2021/12/22 03:17:30;;;;;;;33.95;20.55;;;;;;;;;;5060337;27;93755;-72
2021/12/22 03:19:56;;;;;;;32.85;20.75;;;;;;;;;;5078870;27;93399;-72
2021/12/22 03:22:23;;;;;;;38.75;20.60;;;;;;;;;;5082014;27;92176;-72
2021/12/22 03:24:51;;;;;;;36.45;20.45;;;;;;;;;;5081357;27;92324;-72
2021/12/22 03:27:19;;;;;;;34.28;19.88;;;;;;;;;;5078607;27;93406;-71
2021/12/22 03:29:45;;;;;;;37.67;19.63;;;;;;;;;;5076435;27;95612;-71
2021/12/22 03:32:12;;;;;;;34.30;19.55;;;;;;;;;;5078476;27;92362;-71
2021/12/22 03:34:39;;;;;;;36.08;19.75;;;;;;;;;;5077885;27;93589;-72
2021/12/22 03:37:06;;;;;;;37.40;19.73;;;;;;;;;;5080557;27;93445;-72
2021/12/22 03:39:33;;;;;;;30.73;18.80;;;;;;;;;;5078551;27;93862;-72
2021/12/22 03:41:59;;;;;;;40.63;21.40;;;;;;;;;;5078383;27;93262;-72
2021/12/22 03:44:26;;;;;;;41.33;20.30;;;;;;;;;;5059718;27;92575;-72
2021/12/22 03:46:53;;;;;;;40.70;19.95;;;;;;;;;;5060932;27;93462;-71
2021/12/22 03:49:19;;;;;;;37.25;19.60;;;;;;;;;;5078036;27;93086;-72
2021/12/22 03:51:45;;;;;;;36.80;19.90;;;;;;;;;;5078262;27;92164;-72
2021/12/22 03:54:12;;;;;;;40.78;19.52;;;;;;;;;;5076482;27;94840;-72
2021/12/22 03:56:39;;;;;;;37.10;20.60;;;;;;;;;;5078197;27;93768;-71
2021/12/22 03:59:06;;;;;;;35.00;19.08;;;;;;;;;;5080826;27;92357;-71
2021/12/22 04:01:33;;;;;;;34.72;19.85;;;;;;;;;;5078013;27;92387;-72
2021/12/22 04:04:05;;;;;;;37.72;19.73;;;;;;;;;;5078022;27;92187;-72
2021/12/22 04:06:32;;;;;;;35.70;20.30;;;;;;;;;;5077834;27;93477;-71
2021/12/22 04:08:58;;;;;;;36.72;19.90;;;;;;;;;;5077350;27;93941;-72
2021/12/22 04:11:24;;;;;;;38.50;20.30;;;;;;;;;;5060069;27;92543;-72
2021/12/22 04:13:51;;;;;;;35.65;19.60;;;;;;;;;;5036705;28;92407;-72
2021/12/22 04:16:17;;;;;;;38.75;21.27;;;;;;;;;;5036743;28;93540;-71
2021/12/22 04:18:44;;;;;;;33.33;18.92;;;;;;;;;;5035415;28;94712;-72
2021/12/22 04:21:10;;;;;;;33.00;19.23;;;;;;;;;;5039988;28;95851;-71
2021/12/22 04:23:36;;;;;;;34.00;19.83;;;;;;;;;;5036948;28;92312;-71
2021/12/22 04:26:03;;;;;;;33.67;19.35;;;;;;;;;;5036546;28;92572;-72
2021/12/22 04:28:30;;;;;;;36.72;20.17;;;;;;;;;;5036771;28;93677;-72
2021/12/22 04:30:56;;;;;;;33.10;18.75;;;;;;;;;;5036988;28;92188;-72
2021/12/22 04:33:23;;;;;;;34.17;19.60;;;;;;;;;;5036872;28;93535;-72
2021/12/22 04:35:50;;;;;;;30.70;18.70;;;;;;;;;;5037149;28;92973;-72
2021/12/22 04:38:17;;;;;;;32.97;19.88;;;;;;;;;;5036688;28;92825;-71
2021/12/22 04:40:46;;;;;;;33.08;19.40;;;;;;;;;;5038252;28;92907;-71
2021/12/22 04:43:12;;;;;;;35.92;19.63;;;;;;;;;;5041211;28;96395;-72
2021/12/22 04:45:39;;;;;;;33.97;19.63;;;;;;;;;;5036527;28;95920;-71
2021/12/22 04:48:05;;;;;;;31.65;18.77;;;;;;;;;;5036173;28;93770;-71
2021/12/22 04:50:32;;;;;;;33.72;19.40;;;;;;;;;;5037384;28;92341;-72
2021/12/22 04:53:08;;;;;;;34.38;20.45;;;;;;;;;;5054226;27;94920;-71
2021/12/22 04:55:35;;;;;;;32.17;19.08;;;;;;;;;;5038005;28;93538;-71
2021/12/22 04:58:02;;;;;;;33.47;19.77;;;;;;;;;;5037308;28;92177;-72
2021/12/22 05:00:30;;;;;;;33.58;18.85;;;;;;;;;;5040667;28;92664;-72
2021/12/22 05:02:56;;;;;;;30.50;18.60;;;;;;;;;;5040833;28;93163;-71
2021/12/22 05:05:24;;;;;;;34.75;19.23;;;;;;;;;;5041546;28;92424;-71
2021/12/22 05:07:50;;;;;;;35.40;20.48;;;;;;;;;;5039371;28;95712;-72
2021/12/22 05:10:17;;;;;;;33.30;18.40;;;;;;;;;;5036844;28;92358;-71
2021/12/22 05:12:45;;;;;;;33.05;19.85;;;;;;;;;;5058215;27;93552;-72
2021/12/22 05:15:13;;;;;;;36.38;21.20;;;;;;;;;;5076989;27;92822;-72
2021/12/22 05:20:13;;;;;;;35.00;19.65;;;;;;;;;;5076839;27;93008;-72
2021/12/22 05:22:39;;;;;;;38.70;19.02;;;;;;;;;;5076543;27;93161;-71
2021/12/22 05:25:07;;;;;;;38.03;20.73;;;;;;;;;;5081276;27;91428;-72
2021/12/22 05:27:33;;;;;;;34.13;19.30;;;;;;;;;;5076796;27;93642;-71
2021/12/22 05:30:01;;;;;;;40.92;21.02;;;;;;;;;;5076769;27;92375;-72
2021/12/22 05:32:31;;;;;;;37.38;20.38;;;;;;;;;;5075430;27;94637;-71
2021/12/22 05:34:58;;;;;;;37.85;19.02;;;;;;;;;;5076382;27;93553;-72
2021/12/22 05:37:25;;;;;;;35.90;18.90;;;;;;;;;;5076824;27;92473;-71
2021/12/22 05:39:51;;;;;;;38.47;20.42;;;;;;;;;;5076889;27;92501;-71
2021/12/22 05:42:19;;;;;;;32.60;19.50;;;;;;;;;;5076628;27;92708;-71
2021/12/22 05:44:45;;;;;;;39.97;19.60;;;;;;;;;;5076573;27;92287;-72
2021/12/22 05:47:11;;;;;;;35.67;19.92;;;;;;;;;;5061572;27;93417;-71
2021/12/22 05:49:40;;;;;;;34.78;19.92;;;;;;;;;;5076860;27;91515;-72
2021/12/22 05:52:06;;;;;;;35.95;20.42;;;;;;;;;;5076696;27;92158;-72
2021/12/22 05:54:33;;;;;;;36.92;19.55;;;;;;;;;;5076267;27;93670;-71
2021/12/22 05:56:59;;;;;;;40.53;20.80;;;;;;;;;;5075062;27;95835;-72
2021/12/22 05:59:25;;;;;;;38.78;19.45;;;;;;;;;;5078875;27;96259;-71
2021/12/22 06:01:52;;;;;;;34.22;19.27;;;;;;;;;;5079967;27;93566;-72
2021/12/22 06:04:18;;;;;;;42.90;19.05;;;;;;;;;;5079536;27;92917;-71
2021/12/22 06:06:45;;;;;;;32.60;19.40;;;;;;;;;;5079873;27;93437;-71
2021/12/22 06:09:11;;;;;;;34.10;19.67;;;;;;;;;;5082906;27;94121;-71
2021/12/22 06:11:37;;;;;;;35.70;20.00;;;;;;;;;;5079964;27;93525;-71
2021/12/22 06:14:03;;;;;;;39.50;20.55;;;;;;;;;;5080323;27;92390;-72
2021/12/22 06:16:30;;;;;;;36.92;20.65;;;;;;;;;;5079617;27;92381;-72
2021/12/22 06:19:01;;;;;;;33.92;19.08;;;;;;;;;;5079431;27;93349;-72
2021/12/22 06:21:29;;;;;;;38.17;18.90;;;;;;;;;;5077937;27;96113;-72
2021/12/22 06:23:56;;;;;;;39.30;19.27;;;;;;;;;;5079721;27;92279;-72
2021/12/22 06:26:22;;;;;;;36.17;19.17;;;;;;;;;;5079673;27;93443;-72
2021/12/22 06:28:50;;;;;;;35.88;18.95;;;;;;;;;;5061550;27;93603;-72
2021/12/22 06:31:16;;;;;;;33.67;19.27;;;;;;;;;;5082499;27;93191;-73
2021/12/22 06:33:43;;;;;;;37.13;19.73;;;;;;;;;;5079476;27;93162;-72
2021/12/22 06:36:10;;;;;;;35.97;19.08;;;;;;;;;;5079458;27;92449;-73
2021/12/22 06:38:36;;;;;;;32.85;17.95;;;;;;;;;;5079760;27;93379;-72
2021/12/22 06:41:04;;;;;;;35.10;19.52;;;;;;;;;;5079250;27;92707;-72
2021/12/22 06:43:30;;;;;;;34.08;19.25;;;;;;;;;;5079111;27;92281;-72
2021/12/22 06:45:57;;;;;;;37.60;19.67;;;;;;;;;;5077012;27;94790;-72
2021/12/22 06:48:23;;;;;;;33.15;18.63;;;;;;;;;;5079172;27;93431;-71
2021/12/22 06:50:50;;;;;;;32.92;18.17;;;;;;;;;;5079097;27;92313;-72
2021/12/22 06:53:16;;;;;;;38.85;19.38;;;;;;;;;;5082217;27;93901;-72
2021/12/22 06:55:42;;;;;;;34.63;19.63;;;;;;;;;;5079165;27;92205;-77
2021/12/22 06:58:09;;;;;;;37.67;19.60;;;;;;;;;;5060707;27;96102;-73
2021/12/22 07:00:36;;;;;;;35.88;19.05;;;;;;;;;;5060647;27;93826;-73
2021/12/22 07:03:05;;;;;;;35.78;18.35;;;;;;;;;;5061540;27;91799;-72
2021/12/22 07:05:32;;;;;;;34.97;19.83;;;;;;;;;;5079009;27;92350;-71
2021/12/22 07:07:58;;;;;;;37.45;19.02;;;;;;;;;;5065735;27;92421;-72
2021/12/22 07:10:24;;;;;;;32.28;18.98;;;;;;;;;;5070287;27;94715;-71
2021/12/22 07:12:51;;;;;;;33.15;18.45;;;;;;;;;;5065675;27;96057;-74
2021/12/22 07:15:18;;;;;;;33.25;18.90;;;;;;;;;;5064928;27;92394;-74
2021/12/22 07:17:46;;;;;;;33.13;19.40;;;;;;;;;;5063185;27;93522;-74
2021/12/22 07:20:13;;;;;;;33.25;18.58;;;;;;;;;;5058190;27;93433;-74
2021/12/22 07:22:40;;;;;;;33.28;18.80;;;;;;;;;;5058169;27;92580;-74
2021/12/22 07:25:07;;;;;;;42.08;19.90;;;;;;;;;;5058190;27;93025;-74
2021/12/22 07:27:34;;;;;;;36.95;20.70;;;;;;;;;;5058071;27;93137;-74
2021/12/22 07:30:00;;;;;;;41.95;23.40;;;;;;;;;;5057758;27;92292;-74
2021/12/22 07:32:27;;;;;;;41.13;21.40;;;;;;;;;;5057634;27;92960;-73
2021/12/22 07:35:00;;;;;;;38.70;20.45;;;;;;;;;;5059012;27;96040;-71
2021/12/22 07:37:30;;;;;;;37.58;21.67;;;;;;;;;;5039578;27;95322;-75
2021/12/22 07:39:58;;;;;;;43.88;22.05;;;;;;;;;;5076491;27;93347;-73
2021/12/22 07:42:24;;;;;;;45.25;23.02;;;;;;;;;;5078316;27;92558;-73
2021/12/22 07:44:51;;;;;;;44.50;23.50;;;;;;;;;;5077971;27;93568;-73
2021/12/22 07:47:17;;;;;;;41.35;22.50;;;;;;;;;;5077991;27;93589;-74
2021/12/22 07:49:43;;;;;;;42.50;21.95;;;;;;;;;;5078016;27;92444;-73
2021/12/22 07:52:10;;;;;;;39.15;21.10;;;;;;;;;;5078564;27;93416;-73
2021/12/22 07:54:36;;;;;;;40.50;20.50;;;;;;;;;;5077842;27;93815;-74
2021/12/22 07:57:03;;;;;;;40.58;21.38;;;;;;;;;;5080932;27;92225;-74
2021/12/22 07:59:29;;;;;;;37.60;21.48;;;;;;;;;;5076625;27;96429;-74
2021/12/22 08:01:56;;;;;;;39.25;21.13;;;;;;;;;;5077849;27;92419;-73
2021/12/22 08:04:23;;;;;;;43.88;21.00;;;;;;;;;;5023965;27;92846;-75
2021/12/22 08:06:50;;;;;;;39.58;19.92;;;;;;;;;;5077173;27;94127;-75
2021/12/22 08:09:16;;;;;;;37.65;20.63;;;;;;;;;;5077965;27;92356;-74
2021/12/22 08:11:43;;;;;;;43.08;22.33;;;;;;;;;;5077488;27;93496;-74
2021/12/22 08:14:09;;;;;;;39.88;21.40;;;;;;;;;;5077676;27;93900;-73
2021/12/22 08:16:35;;;;;;;39.10;21.05;;;;;;;;;;5078297;27;91567;-74
2021/12/22 08:19:02;;;;;;;45.83;22.10;;;;;;;;;;5080955;27;92307;-74
2021/12/22 08:21:29;;;;;;;43.28;22.33;;;;;;;;;;5059071;27;93356;-74
2021/12/22 08:23:55;;;;;;;38.55;20.85;;;;;;;;;;5075835;27;94584;-74
2021/12/22 08:26:22;;;;;;;38.38;22.35;;;;;;;;;;5059660;27;94046;-74
2021/12/22 08:28:49;;;;;;;40.25;21.23;;;;;;;;;;5059507;27;92289;-74
2021/12/22 08:31:15;;;;;;;39.47;21.52;;;;;;;;;;5073324;27;93369;-73
2021/12/22 08:33:45;;;;;;;42.70;21.88;;;;;;;;;;5057323;27;93638;-75
2021/12/22 08:39:00;;;;;;;42.28;23.17;;;;;;;;;;5062303;27;93253;-74
2021/12/22 08:41:32;;;;;;;44.45;22.80;;;;;;;;;;5083019;27;94056;-73
2021/12/22 08:44:00;;;;;;;42.00;22.90;;;;;;;;;;5098438;27;93117;-73
2021/12/22 08:46:28;;;;;;;42.85;23.60;;;;;;;;;;5098223;27;93766;-74
2021/12/22 08:48:55;;;;;;;42.83;22.55;;;;;;;;;;5096492;27;94681;-74
2021/12/22 08:51:22;;;;;;;43.25;21.40;;;;;;;;;;5098272;27;94182;-74
2021/12/22 08:53:48;;;;;;;42.50;22.73;;;;;;;;;;5056932;27;93884;-74
2021/12/22 08:56:14;;;;;;;40.38;21.45;;;;;;;;;;5057172;27;92326;-74
2021/12/22 08:58:41;;;;;;;42.92;22.05;;;;;;;;;;5061120;27;93039;-76
2021/12/22 09:01:07;;;;;;;39.60;20.67;;;;;;;;;;5060744;27;93665;-73
2021/12/22 09:03:35;;;;;;;45.85;21.63;;;;;;;;;;5066660;27;92492;-74
2021/12/22 09:06:02;;;;;;;44.63;22.67;;;;;;;;;;5046502;27;93474;-72
2021/12/22 09:08:28;;;;;;;46.60;22.38;;;;;;;;;;5058135;27;92246;-74
2021/12/22 09:10:55;;;;;;;41.80;21.85;;;;;;;;;;5057136;27;92777;-73
2021/12/22 09:13:22;;;;;;;43.22;22.08;;;;;;;;;;5054633;27;95043;-75
2021/12/22 09:15:50;;;;;;;44.85;22.38;;;;;;;;;;5057975;27;92308;-75
2021/12/22 09:18:17;;;;;;;44.90;21.98;;;;;;;;;;5063036;27;92996;-74
2021/12/22 09:20:44;;;;;;;40.85;21.35;;;;;;;;;;5056936;27;94072;-73
2021/12/22 09:23:10;;;;;;;46.65;21.88;;;;;;;;;;5059238;27;92529;-72
2021/12/22 09:25:36;;;;;;;40.28;21.65;;;;;;;;;;5056056;27;93500;-75
2021/12/22 09:28:03;;;;;;;39.00;21.27;;;;;;;;;;5056743;27;92265;-72
2021/12/22 09:30:35;;;;;;;40.17;21.60;;;;;;;;;;5057117;27;93461;-76
2021/12/22 09:33:03;;;;;;;41.90;22.17;;;;;;;;;;5056361;27;94138;-75
2021/12/22 09:35:29;;;;;;;38.17;20.95;;;;;;;;;;5059272;27;92256;-75
2021/12/22 09:37:55;;;;;;;39.47;21.63;;;;;;;;;;5058560;27;95020;-74
2021/12/22 09:40:22;;;;;;;45.65;21.27;;;;;;;;;;5060122;27;94131;-73
2021/12/22 09:42:48;;;;;;;36.97;20.17;;;;;;;;;;5059695;27;92166;-75
2021/12/22 09:45:16;;;;;;;40.53;21.60;;;;;;;;;;5062433;27;93447;-75
2021/12/22 09:48:01;;;;;;;47.63;23.00;;;;;;;;;;5059881;27;92410;-76
2021/12/22 09:53:25;;;;;;;41.90;21.92;;;;;;;;;;4987021;27;93658;-75
2021/12/22 09:55:52;;;;;;;43.00;22.15;;;;;;;;;;5062190;27;91612;-73
2021/12/22 09:58:19;;;;;;;47.00;22.83;;;;;;;;;;5047204;27;92224;-72
2021/12/22 10:00:46;;;;;;;44.38;22.90;;;;;;;;;;5059667;27;93147;-74
2021/12/22 10:03:13;;;;;;;47.97;23.15;;;;;;;;;;5058156;27;95616;-74
2021/12/22 10:05:41;;;;;;;45.75;23.80;;;;;;;;;;5059478;27;95852;-75
2021/12/22 10:08:07;;;;;;;44.05;23.27;;;;;;;;;;5062482;27;93588;-75
2021/12/22 10:10:34;;;;;;;43.45;23.67;;;;;;;;;;5059309;27;93855;-75
2021/12/22 10:13:09;;;;;;;50.58;23.30;;;;;;;;;;5058691;27;93639;-74
2021/12/22 10:15:37;;;;;;;44.97;23.30;;;;;;;;;;5059515;27;92311;-74
2021/12/22 10:18:08;;;;;;;40.55;22.25;;;;;;;;;;5059290;27;92920;-75
2021/12/22 10:20:34;;;;;;;50.45;23.40;;;;;;;;;;5059873;27;92409;-75
2021/12/22 10:23:01;;;;;;;43.13;22.17;;;;;;;;;;5041471;27;92411;-73
2021/12/22 10:25:29;;;;;;;46.08;22.75;;;;;;;;;;5059149;27;93449;-75
2021/12/22 10:27:57;;;;;;;44.95;23.23;;;;;;;;;;5057748;27;95505;-74
2021/12/22 10:30:26;;;;;;;44.78;23.23;;;;;;;;;;5062230;27;92276;-75
2021/12/22 10:33:03;;;;;;;48.38;23.95;;;;;;;;;;5059108;27;93641;-74
2021/12/22 10:35:32;;;;;;;43.58;24.30;;;;;;;;;;5059060;27;92251;-75
2021/12/22 10:38:00;;;;;;;42.55;23.17;;;;;;;;;;5058944;27;93500;-74
2021/12/22 10:40:31;;;;;;;40.80;23.42;;;;;;;;;;5059084;27;93642;-74
2021/12/22 10:42:58;;;;;;;41.40;21.33;;;;;;;;;;5059072;27;92168;-74
2021/12/22 10:45:26;;;;;;;42.20;22.13;;;;;;;;;;5059066;27;93532;-75
2021/12/22 10:50:40;;;;;;;46.17;23.50;;;;;;;;;;5058918;27;92418;-74
2021/12/22 10:53:08;;;;;;;36.65;20.42;;;;;;;;;;5042336;27;94729;-76
2021/12/22 10:55:44;;;;;;;40.00;22.10;;;;;;;;;;5058856;27;92297;-72
2021/12/22 10:58:23;;;;;;;39.03;20.70;;;;;;;;;;5040848;27;93008;-75
2021/12/22 11:01:18;;;;;;;43.08;21.50;;;;;;;;;;5056645;27;93275;-72
2021/12/22 11:03:50;;;;;;;35.58;21.38;;;;;;;;;;5038015;27;92371;-74
2021/12/22 11:06:21;;;;;;;42.80;21.73;;;;;;;;;;5058566;27;92932;-73
2021/12/22 11:08:53;;;;;;;40.25;21.35;;;;;;;;;;5057813;27;93273;-73
2021/12/22 11:11:20;;;;;;;35.90;20.25;;;;;;;;;;5058905;27;91511;-73
2021/12/22 11:14:00;;;;;;;42.33;21.63;;;;;;;;;;5056800;27;93250;-77
2021/12/22 11:16:27;;;;;;;37.17;20.95;;;;;;;;;;5069858;27;92402;-77
2021/12/22 11:18:54;;;;;;;40.22;22.15;;;;;;;;;;5056074;27;94834;-72
2021/12/22 11:21:27;;;;;;;40.63;20.48;;;;;;;;;;5065186;27;93623;-74
2021/12/22 11:23:55;;;;;;;38.25;20.27;;;;;;;;;;5065948;27;92603;-75
2021/12/22 11:26:21;;;;;;;41.22;20.33;;;;;;;;;;5040406;27;92938;-74
2021/12/22 11:28:48;;;;;;;37.88;21.90;;;;;;;;;;5058065;27;93001;-74
2021/12/22 11:31:14;;;;;;;36.78;20.33;;;;;;;;;;5058204;27;92445;-74
2021/12/22 11:33:44;;;;;;;40.70;21.20;;;;;;;;;;5057747;27;93656;-76
2021/12/22 11:36:12;;;;;;;46.17;21.40;;;;;;;;;;5043652;27;92744;-75
2021/12/22 11:38:42;;;;;;;44.20;22.05;;;;;;;;;;5058240;27;92171;-76
2021/12/22 11:41:15;;;;;;;35.33;20.55;;;;;;;;;;5039062;27;95603;-77
2021/12/22 11:43:43;;;;;;;34.38;21.00;;;;;;;;;;5056449;27;94674;-76
2021/12/22 11:46:10;;;;;;;38.58;21.35;;;;;;;;;;5058778;27;95866;-73
2021/12/22 11:48:38;;;;;;;39.58;21.45;;;;;;;;;;5063341;27;93357;-74
2021/12/22 11:51:23;;;;;;;34.90;21.15;;;;;;;;;;5049105;27;92243;-76
2021/12/22 11:53:53;;;;;;;36.05;20.15;;;;;;;;;;5078354;27;93346;-75
2021/12/22 11:56:36;;;;;;;31.60;20.83;;;;;;;;;;5058711;27;93836;-75
2021/12/22 11:59:02;;;;;;;31.13;20.00;;;;;;;;;;5061122;27;92295;-76
2021/12/22 12:01:29;;;;;;;32.78;19.35;;;;;;;;;;5058107;27;92643;-73
2021/12/22 12:04:12;;;;;;;30.48;19.10;;;;;;;;;;5049736;27;92401;-76
2021/12/22 12:06:46;;;;;;;35.35;19.85;;;;;;;;;;5077960;27;92960;-75
2021/12/22 12:09:14;;;;;;;31.00;19.48;;;;;;;;;;5076097;27;95498;-76
2021/12/22 12:11:48;;;;;;;36.03;20.42;;;;;;;;;;5059910;27;92171;-75
2021/12/22 12:14:31;;;;;;;35.17;19.95;;;;;;;;;;5078055;27;92650;-75
2021/12/22 12:23:17;;;;;;;32.20;19.35;;;;;;;;;;5062328;27;94655;-74
2021/12/22 12:25:43;;;;;;;33.30;18.73;;;;;;;;;;5077678;27;92153;-74
2021/12/22 12:28:14;;;;;;;37.22;20.52;;;;;;;;;;5077846;27;93628;-74
2021/12/22 12:30:49;;;;;;;33.58;21.55;;;;;;;;;;5058135;27;93273;-75
2021/12/22 12:33:20;;;;;;;32.50;20.75;;;;;;;;;;5077207;27;92453;-73
2021/12/22 12:35:52;;;;;;;34.45;19.58;;;;;;;;;;5076052;27;94807;-73
2021/12/22 12:38:19;;;;;;;29.83;18.85;;;;;;;;;;5077327;27;94105;-74
2021/12/22 12:40:54;;;;;;;35.15;19.65;;;;;;;;;;5085083;27;92400;-74
2021/12/22 12:43:39;;;;;;;29.63;19.92;;;;;;;;;;5081465;27;93563;-74
2021/12/22 12:46:28;;;;;;;34.88;20.17;;;;;;;;;;5087998;27;93480;-73
2021/12/22 12:49:07;;;;;;;29.83;19.35;;;;;;;;;;5079825;27;93733;-73
2021/12/22 12:51:34;;;;;;;28.75;18.42;;;;;;;;;;5078452;27;93492;-74
2021/12/22 12:54:02;;;;;;;36.10;18.98;;;;;;;;;;5082219;27;91655;-74
2021/12/22 12:56:33;;;;;;;39.33;19.95;;;;;;;;;;5081731;27;92991;-74
2021/12/22 12:58:59;;;;;;;32.60;20.45;;;;;;;;;;5059396;27;96645;-74
2021/12/22 13:01:47;;;;;;;32.63;19.98;;;;;;;;;;5075656;27;95569;-75
2021/12/22 13:04:23;;;;;;;38.95;20.90;;;;;;;;;;5077012;27;95811;-74
2021/12/22 13:06:50;;;;;;;39.08;20.80;;;;;;;;;;5076855;27;93582;-73
2021/12/22 13:09:23;;;;;;;33.58;20.77;;;;;;;;;;5080133;27;92206;-73
2021/12/22 13:12:19;;;;;;;37.15;20.33;;;;;;;;;;5076228;27;93226;-74
2021/12/22 13:17:38;;;;;;;32.58;18.85;;;;;;;;;;5076446;27;94761;-75
2021/12/22 13:20:05;;;;;;;34.05;19.63;;;;;;;;;;5077345;27;92692;-74
2021/12/22 13:22:33;;;;;;;32.97;19.55;;;;;;;;;;5077479;27;92403;-73
2021/12/22 13:25:18;;;;;;;34.47;19.85;;;;;;;;;;5087379;27;92730;-72
2021/12/22 13:27:45;;;;;;;32.58;20.17;;;;;;;;;;5075093;27;96041;-72
2021/12/22 13:30:14;;;;;;;35.25;20.92;;;;;;;;;;5077091;27;92219;-73
2021/12/22 13:32:57;;;;;;;29.17;19.10;;;;;;;;;;5079607;27;93019;-74
2021/12/22 13:35:29;;;;;;;27.63;18.27;;;;;;;;;;5076926;27;92137;-72
2021/12/22 13:37:56;;;;;;;34.08;17.80;;;;;;;;;;5076549;27;92306;-73
2021/12/22 13:40:39;;;;;;;29.08;18.08;;;;;;;;;;5076803;27;93357;-72
2021/12/22 13:43:16;;;;;;;31.95;17.33;;;;;;;;;;5076434;27;92193;-74
2021/12/22 13:45:42;;;;;;;29.10;16.90;;;;;;;;;;5077116;27;93018;-73
2021/12/22 13:48:19;;;;;;;31.85;19.33;;;;;;;;;;5076432;27;93573;-73
2021/12/22 13:50:46;;;;;;;32.22;17.63;;;;;;;;;;5076663;27;92618;-77
2021/12/22 13:53:18;;;;;;;30.02;17.63;;;;;;;;;;5078014;27;94584;-74
2021/12/22 13:55:45;;;;;;;30.85;18.05;;;;;;;;;;5056716;27;92384;-73
2021/12/22 13:58:30;;;;;;;26.48;18.63;;;;;;;;;;5076376;27;92879;-74
2021/12/22 14:01:15;;;;;;;30.67;18.88;;;;;;;;;;5076360;27;93573;-73
2021/12/22 14:03:42;;;;;;;30.45;18.05;;;;;;;;;;5084088;27;92273;-74
2021/12/22 14:06:10;;;;;;;30.13;18.25;;;;;;;;;;5083525;27;92265;-73
2021/12/22 14:08:37;;;;;;;33.35;19.38;;;;;;;;;;5076345;27;93571;-74
2021/12/22 14:11:23;;;;;;;29.95;18.33;;;;;;;;;;5076695;27;91562;-73
2021/12/22 14:13:49;;;;;;;29.33;19.35;;;;;;;;;;5075739;27;92222;-73
2021/12/22 14:16:29;;;;;;;31.52;20.27;;;;;;;;;;5079214;27;93071;-73
2021/12/22 14:18:56;;;;;;;33.40;21.10;;;;;;;;;;5074469;27;94740;-74
2021/12/22 14:21:22;;;;;;;37.17;22.45;;;;;;;;;;5079198;27;93538;-72
2021/12/22 14:23:57;;;;;;;33.67;23.50;;;;;;;;;;5079524;27;92319;-73
2021/12/22 14:26:23;;;;;;;34.65;22.67;;;;;;;;;;5079732;27;93530;-73
2021/12/22 14:28:59;;;;;;;42.45;25.42;;;;;;;;;;5061530;27;92333;-76
2021/12/22 14:31:26;;;;;;;41.15;22.60;;;;;;;;;;5079812;27;92296;-74
2021/12/22 14:34:04;;;;;;;44.38;23.88;;;;;;;;;;5079920;27;92609;-76
2021/12/22 14:36:44;;;;;;;43.55;23.15;;;;;;;;;;5079612;27;93105;-73
2021/12/22 14:39:11;;;;;;;36.97;22.05;;;;;;;;;;5082686;27;92308;-73
2021/12/22 14:41:38;;;;;;;37.90;22.13;;;;;;;;;;5060597;27;95673;-73
2021/12/22 14:44:16;;;;;;;37.28;21.60;;;;;;;;;;5077978;27;94631;-75
2021/12/22 14:46:42;;;;;;;44.20;22.00;;;;;;;;;;5079090;27;95699;-73
2021/12/22 14:49:19;;;;;;;34.92;20.65;;;;;;;;;;5076526;27;93163;-74
2021/12/22 14:51:47;;;;;;;26.33;18.10;;;;;;;;;;5026416;27;92802;-74